»·PEaware :: AAY383 KELP-KTUS

AAY383 :: KELP-KTUS

FLIGHT INFORMATION

Flight Status: Arrived
Operator:
Allegiant Air
More flights by this operator :: More flights under this callsign
Pilot: David C. (16084)
Aircraft: Airbus A320neo
(A20N)
More flights by this aircraft type
Origin: KELP El Paso Intl
United States
Destination: KTUS Tucson Intl
United States
More flights between these airports :: More routes between these airports
Route: JCOXX2 TELKE ZONNA ZONNA1
File this flight plan on PilotEdge
Remarks:
Altitude:
(Current/Filed)
28,000ft
Speed:
(Current/Filed)
483kts
Departed: 15-Jul-23 06:47 PM
Arrived: 15-Jul-23 07:29 PM
Distance/Time
Traveled:
233nm/0:42
Distance/Time
To Go:
Arrived

Flight Plot

Page will automatically refresh every two minutes.

Flight plan parsing failed; only flown route is shown


Map Options




Map Legend


Flown Route
Filed Route
Departure Airport
Arrival Airport
Navaid (VOR, NDB)
Fix

Horizontal Profiles

Position Reports

Time Latitude Longitude Heading Altitude Ground
Speed
15-Jul-23 18:01 31.800523 -106.394653 160 3923ft 0kts
15-Jul-23 18:08 31.800523 -106.394653 160 3923ft 0kts
15-Jul-23 18:09 31.800523 -106.394653 160 3923ft 0kts
15-Jul-23 18:10 31.800523 -106.394653 160 3923ft 0kts
15-Jul-23 18:11 31.800523 -106.394653 160 3923ft 0kts
15-Jul-23 18:12 31.800523 -106.394653 160 3923ft 0kts
15-Jul-23 18:13 31.800523 -106.394653 160 3923ft 0kts
15-Jul-23 18:14 31.800523 -106.394653 160 3923ft 0kts
15-Jul-23 18:15 31.800523 -106.394653 160 3923ft 0kts
15-Jul-23 18:16 31.800523 -106.394653 160 3923ft 0kts
15-Jul-23 18:17 31.800523 -106.394653 160 3923ft 0kts
15-Jul-23 18:18 31.800523 -106.394653 160 3923ft 0kts
15-Jul-23 18:19 31.800523 -106.394653 160 3923ft 0kts
15-Jul-23 18:21 31.800523 -106.394653 160 3923ft 0kts
15-Jul-23 18:22 31.800523 -106.394653 160 3923ft 0kts
15-Jul-23 18:23 31.800523 -106.394653 160 3923ft 0kts
15-Jul-23 18:24 31.800523 -106.394653 160 3923ft 0kts
15-Jul-23 18:25 31.800523 -106.394653 160 3923ft 0kts
15-Jul-23 18:26 31.800523 -106.394653 160 3923ft 0kts
15-Jul-23 18:27 31.800523 -106.394653 160 3923ft 0kts
15-Jul-23 18:28 31.800523 -106.394653 160 3923ft 0kts
15-Jul-23 18:29 31.800523 -106.394653 160 3923ft 0kts
15-Jul-23 18:30 31.800523 -106.394653 160 3923ft 0kts
15-Jul-23 18:31 31.800523 -106.394654 160 3923ft 0kts
15-Jul-23 18:32 31.800792 -106.394810 145 3923ft 2kts
15-Jul-23 18:33 31.800979 -106.394992 134 3923ft 0kts
15-Jul-23 18:34 31.800979 -106.394992 134 3923ft 0kts
15-Jul-23 18:35 31.800979 -106.394992 134 3923ft 0kts
15-Jul-23 18:36 31.800979 -106.394992 134 3923ft 0kts
15-Jul-23 18:37 31.800979 -106.394992 134 3923ft 0kts
15-Jul-23 18:38 31.800979 -106.394992 134 3923ft 0kts
15-Jul-23 18:39 31.800979 -106.394992 134 3923ft 0kts
15-Jul-23 18:40 31.800979 -106.394992 134 3923ft 0kts
15-Jul-23 18:41 31.800979 -106.394992 134 3923ft 0kts
15-Jul-23 18:42 31.800979 -106.394992 134 3923ft 0kts
15-Jul-23 18:43 31.801061 -106.394865 331 3923ft 1kts
15-Jul-23 18:43 31.801224 -106.395240 296 3923ft 5kts
15-Jul-23 18:45 31.800899 -106.398905 299 3919ft 0kts
15-Jul-23 18:46 31.801485 -106.399537 353 3919ft 8kts
15-Jul-23 18:47 31.816908 -106.378085 45 4164ft 167kts
15-Jul-23 18:48 31.846512 -106.330565 51 5894ft 206kts
15-Jul-23 18:48 31.887909 -106.305727 342 7513ft 241kts
15-Jul-23 18:49 31.921781 -106.375069 291 9612ft 259kts
15-Jul-23 18:50 31.947881 -106.454754 280 11822ft 262kts
15-Jul-23 18:52 31.950537 -106.557198 271 13671ft 297kts
15-Jul-23 18:53 31.953170 -106.663969 273 14793ft 356kts
15-Jul-23 18:53 31.957239 -106.767172 273 15610ft 399kts
15-Jul-23 18:54 31.962277 -106.903050 274 17205ft 422kts
15-Jul-23 18:55 31.967272 -107.042417 274 19179ft 431kts
15-Jul-23 18:56 31.972199 -107.184981 273 21018ft 441kts
15-Jul-23 18:57 31.977043 -107.330502 273 22758ft 451kts
15-Jul-23 18:58 31.981842 -107.479932 272 24396ft 461kts
15-Jul-23 18:59 31.986554 -107.632821 272 25890ft 471kts
15-Jul-23 19:00 31.991157 -107.788129 271 27134ft 478kts
15-Jul-23 19:01 31.995631 -107.945191 271 28120ft 483kts
15-Jul-23 19:02 31.999926 -108.103103 271 28139ft 484kts
15-Jul-23 19:03 32.004068 -108.262103 271 28164ft 485kts
15-Jul-23 19:04 32.008004 -108.420660 271 28180ft 484kts
15-Jul-23 19:05 32.011760 -108.578886 271 28182ft 484kts
15-Jul-23 19:06 32.018787 -108.738032 282 28181ft 484kts
15-Jul-23 19:07 32.082744 -108.876631 305 28186ft 484kts
15-Jul-23 19:08 32.160160 -109.005821 304 28185ft 484kts
15-Jul-23 19:09 32.212633 -109.147850 269 28176ft 485kts
15-Jul-23 19:10 32.210439 -109.307071 269 28130ft 485kts
15-Jul-23 19:11 32.210283 -109.466605 270 27743ft 487kts
15-Jul-23 19:12 32.210267 -109.625181 270 24150ft 489kts
15-Jul-23 19:13 32.210040 -109.785856 270 21222ft 469kts
15-Jul-23 19:14 32.201165 -109.934158 263 19632ft 447kts
15-Jul-23 19:15 32.185940 -110.077856 264 17491ft 439kts
15-Jul-23 19:16 32.169100 -110.217407 250 15461ft 420kts
15-Jul-23 19:17 32.095896 -110.308898 223 12416ft 365kts
15-Jul-23 19:18 32.050025 -110.403727 257 10450ft 314kts
15-Jul-23 19:19 32.029364 -110.498895 254 8612ft 288kts
15-Jul-23 19:20 32.009042 -110.588489 254 7341ft 279kts
15-Jul-23 19:21 31.989759 -110.673354 254 6349ft 256kts
15-Jul-23 19:22 31.973101 -110.746712 255 5582ft 208kts
15-Jul-23 19:23 31.996651 -110.799904 315 5161ft 178kts
15-Jul-23 19:24 32.030900 -110.839213 313 4532ft 151kts
15-Jul-23 19:25 32.059983 -110.873333 314 3767ft 146kts
15-Jul-23 19:26 32.088378 -110.907107 317 3041ft 144kts
15-Jul-23 19:27 32.113683 -110.936520 315 2602ft 66kts
15-Jul-23 19:28 32.116923 -110.938689 18 2602ft 0kts
15-Jul-23 19:29 32.118503 -110.937368 51 2602ft 0kts
15-Jul-23 19:30 32.118503 -110.937368 51 2602ft 0kts

Navigation Log

Ident Type
Flight plan parsing failed, navigation log unavailable